Time;durP1;ratioP1;P1;durP2;ratioP2;P2;SDS_P1;SDS_P2;PMS_P1;PMS_P2;Temp;Humidity;BMP_temperature;BMP_pressure;BME280_temperature;BME280_humidity;BME280_pressure;Samples;Min_cycle;Max_cycle;Signal;HPM_P1;HPM_P2
2020/06/20 12:45:08;;;;;;;1.3;0.5;;;;;;;21.73;46.43066;941.4238;;;;
2020/06/20 13:06:16;;;;;;;2;0.5;;;;;;;19.9;57.33203;941.8576;;;;
2020/06/20 13:11:37;;;;;;;2.2;0.6;;;;;;;19.76;58.00195;941.785;;;;
2020/06/20 13:32:31;;;;;;;1.2;0.6;;;;;;;19.52;58.19238;941.8699;;;;
2020/06/20 13:34:20;;;;;;;1.5;0.6;;;;;;;19.58;57.85059;941.8802;;;;
2020/06/20 13:54:29;;;;;;;1.8;0.6;;;;;;;19.15;60.36914;941.9205;;;;
2020/06/20 14:13:15;;;;;;;3;0.7;;;;;;;18.88;62.33398;942.0524;;;;
2020/06/20 14:16:04;;;;;;;1.5;0.7;;;;;;;18.88;62.0293;942.0274;;;;
2020/06/20 14:17:53;;;;;;;1.9;0.6;;;;;;;19;62.02441;942.0608;;;;
2020/06/20 14:20:20;;;;;;;2.2;0.7;;;;;;;19.06;62.00977;942.0351;;;;
2020/06/20 14:22:48;;;;;;;2.1;0.7;;;;;;;19.07;62.4873;941.9761;;;;
2020/06/20 14:25:13;;;;;;;1.3;0.6;;;;;;;19.01;62.71191;941.9791;;;;
2020/06/20 14:27:38;;;;;;;1.2;0.7;;;;;;;19.01;62.15332;942.1503;;;;
2020/06/20 14:30:11;;;;;;;0.9;0.7;;;;;;;19.05;61.37891;942.1459;;;;
2020/06/20 14:32:36;;;;;;;1.6;0.8;;;;;;;18.94;62.48047;942.178;;;;
2020/06/20 14:35:01;;;;;;;1.4;0.6;;;;;;;18.73;59.92578;942.1442;;;;
2020/06/20 14:37:27;;;;;;;1.5;0.8;;;;;;;18.24;63.62598;942.1842;;;;
2020/06/20 14:39:52;;;;;;;2.2;0.7;;;;;;;18.1;63.81445;942.3141;;;;
2020/06/20 14:42:20;;;;;;;1.2;0.6;;;;;;;17.93;65.86816;942.3909;;;;
2020/06/20 14:44:45;;;;;;;3.7;0.7;;;;;;;17.71;67.88965;942.423;;;;
2020/06/20 14:47:11;;;;;;;4.7;0.8;;;;;;;17.54;71.22852;942.5507;;;;
2020/06/20 14:49:36;;;;;;;2.6;0.7;;;;;;;17.36;72.21973;942.5505;;;;
2020/06/20 14:52:03;;;;;;;2.2;1;;;;;;;17.08;74.53809;942.6358;;;;
2020/06/20 14:54:28;;;;;;;2;1.3;;;;;;;16.86;76.67871;942.6919;;;;
2020/06/20 14:56:53;;;;;;;2.8;1.4;;;;;;;16.82;77.92188;942.7458;;;;
2020/06/20 14:59:18;;;;;;;1.7;1.2;;;;;;;16.8;79.12402;942.7597;;;;
2020/06/20 15:01:43;;;;;;;2.6;1.3;;;;;;;16.83;79.5918;942.7236;;;;
2020/06/20 15:04:11;;;;;;;3.1;1.2;;;;;;;16.78;79.56055;942.7903;;;;
2020/06/20 15:06:36;;;;;;;4.2;1.2;;;;;;;16.72;79.53711;942.7514;;;;
2020/06/20 15:09:02;;;;;;;2;1.2;;;;;;;16.53;79.59766;942.7938;;;;
2020/06/20 15:11:26;;;;;;;2.6;1.4;;;;;;;16.48;81.08105;942.7411;;;;
2020/06/20 15:13:52;;;;;;;2.4;1.2;;;;;;;16.25;82.31152;942.6842;;;;
2020/06/20 15:16:18;;;;;;;2.3;1.2;;;;;;;16.05;83.24219;942.6721;;;;
2020/06/20 15:18:43;;;;;;;1.9;1.2;;;;;;;16.25;82.13574;942.7759;;;;
2020/06/20 15:21:09;;;;;;;1.9;1.2;;;;;;;16.43;80.60938;942.7823;;;;
2020/06/20 15:23:34;;;;;;;1.6;1.1;;;;;;;16.48;80.75488;942.7982;;;;
2020/06/20 15:26:00;;;;;;;2.6;1.2;;;;;;;16.55;81.24316;942.883;;;;
2020/06/20 15:28:24;;;;;;;2.4;1;;;;;;;16.54;79.36621;942.8364;;;;
2020/06/20 15:30:53;;;;;;;1.6;1;;;;;;;16.55;79.45996;942.9007;;;;
2020/06/20 15:33:18;;;;;;;1.4;1.1;;;;;;;16.65;78.76172;942.8987;;;;
2020/06/20 15:35:59;;;;;;;2.2;1.1;;;;;;;16.72;79.61816;942.9073;;;;
2020/06/20 15:38:11;;;;;;;1.2;1.1;;;;;;;16.64;79.33789;942.8393;;;;
2020/06/20 15:40:42;;;;;;;1.9;1.1;;;;;;;16.66;79.35352;942.8962;;;;
2020/06/20 15:43:08;;;;;;;2;1.2;;;;;;;16.59;79.71094;942.9261;;;;
2020/06/20 15:45:37;;;;;;;2.5;1.5;;;;;;;16.65;80.3584;942.9446;;;;
2020/06/20 15:48:02;;;;;;;2.8;1.3;;;;;;;16.65;79.74414;942.9855;;;;
2020/06/20 15:50:27;;;;;;;2.1;1.1;;;;;;;16.56;79.17188;942.9464;;;;
2020/06/20 15:52:53;;;;;;;3.7;1.3;;;;;;;16.5;79.46387;942.9194;;;;
2020/06/20 15:55:21;;;;;;;2.2;1.1;;;;;;;16.4;79.00586;942.9238;;;;
2020/06/20 15:57:46;;;;;;;2.3;1.1;;;;;;;16.37;79.62598;942.8934;;;;
2020/06/20 16:00:15;;;;;;;2.5;1.1;;;;;;;16.37;79.57813;942.9142;;;;
2020/06/20 16:02:41;;;;;;;1.2;1.1;;;;;;;16.38;80.10156;942.9359;;;;
2020/06/20 16:05:12;;;;;;;1.5;1;;;;;;;16.4;79.67676;942.8884;;;;
2020/06/20 16:07:37;;;;;;;1.1;1;;;;;;;16.41;79.59961;942.8963;;;;
2020/06/20 16:10:02;;;;;;;2.7;1.2;;;;;;;16.27;81.01758;942.8778;;;;
2020/06/20 16:12:27;;;;;;;1.6;1.2;;;;;;;16.32;81.375;942.9138;;;;
2020/06/20 16:14:54;;;;;;;1.6;1.3;;;;;;;16.32;81.78906;942.9893;;;;
2020/06/20 16:17:19;;;;;;;3.1;1.3;;;;;;;16.31;81.34961;942.9708;;;;
2020/06/20 16:19:45;;;;;;;1.6;1.5;;;;;;;16.25;81.32617;942.8979;;;;
2020/06/20 16:22:10;;;;;;;1.5;1.3;;;;;;;16.27;81.63184;942.9172;;;;
2020/06/20 16:24:35;;;;;;;2.1;1.4;;;;;;;16.35;81.18164;942.9185;;;;
2020/06/20 16:27:00;;;;;;;2.3;1.9;;;;;;;16.35;82.3418;942.9545;;;;
2020/06/20 16:29:25;;;;;;;3.8;2.5;;;;;;;16.28;81.63184;942.9589;;;;
2020/06/20 16:31:50;;;;;;;5.2;3;;;;;;;16.28;82.60449;942.9437;;;;
2020/06/20 16:34:16;;;;;;;3.9;3.1;;;;;;;16.38;82.92383;942.9327;;;;
2020/06/20 16:36:41;;;;;;;15.5;11;;;;;;;16.18;81.32422;942.9261;;;;
2020/06/20 16:39:06;;;;;;;13.2;7.8;;;;;;;16.07;82.16016;942.8817;;;;
2020/06/20 16:41:31;;;;;;;8.8;5.2;;;;;;;16.21;82.98535;942.8794;;;;
2020/06/20 16:43:56;;;;;;;2.4;1.5;;;;;;;16.32;83.30469;942.8904;;;;
2020/06/20 16:46:23;;;;;;;1.5;1.4;;;;;;;16.38;83.43262;942.9408;;;;
2020/06/20 16:48:48;;;;;;;1.8;1.4;;;;;;;16.37;82.36816;942.9255;;;;
2020/06/20 16:51:15;;;;;;;2;1.5;;;;;;;16.4;81.99121;942.9052;;;;
2020/06/20 16:53:40;;;;;;;1.7;1.2;;;;;;;16.4;80.85547;942.8997;;;;
2020/06/20 16:56:06;;;;;;;2.3;1.4;;;;;;;16.28;81.01953;942.8906;;;;
2020/06/20 16:58:32;;;;;;;2.7;1.4;;;;;;;16.16;82.2002;942.8949;;;;
2020/06/20 17:00:58;;;;;;;2.1;1.6;;;;;;;16.12;83.55859;942.8638;;;;
2020/06/20 17:03:23;;;;;;;2.6;1.8;;;;;;;16.15;83.30859;942.8194;;;;
2020/06/20 17:05:48;;;;;;;3.4;1.9;;;;;;;16.12;82.56348;942.7827;;;;
2020/06/20 17:08:13;;;;;;;2.3;2.1;;;;;;;16.07;83.22363;942.7989;;;;
2020/06/20 17:10:39;;;;;;;4;2.2;;;;;;;15.91;83.58789;942.7559;;;;
2020/06/20 17:13:04;;;;;;;3.4;2.6;;;;;;;15.9;83.39941;942.7623;;;;
2020/06/20 17:15:29;;;;;;;4;3.4;;;;;;;15.96;84.81055;942.7758;;;;
2020/06/20 17:17:54;;;;;;;5;3.3;;;;;;;16.03;83.87402;942.796;;;;
2020/06/20 17:20:23;;;;;;;3.9;3.1;;;;;;;16.04;82.91699;942.7461;;;;
2020/06/20 17:22:49;;;;;;;6.9;3.4;;;;;;;16.07;83.70801;942.7314;;;;
2020/06/20 17:25:14;;;;;;;4.5;2.9;;;;;;;16.09;83.50488;942.6526;;;;
2020/06/20 17:27:40;;;;;;;3.7;2.8;;;;;;;16.13;82.73828;942.7617;;;;
2020/06/20 17:30:06;;;;;;;4.3;2.9;;;;;;;16.08;82.79785;942.7475;;;;
2020/06/20 17:32:31;;;;;;;4.7;3.1;;;;;;;16.11;83.59082;942.798;;;;
2020/06/20 17:34:56;;;;;;;4.5;3;;;;;;;16.06;83.52344;942.7219;;;;
2020/06/20 17:37:21;;;;;;;3.2;2.7;;;;;;;16.11;83.93848;942.7545;;;;
2020/06/20 17:39:46;;;;;;;3.8;2.5;;;;;;;16.14;83.94336;942.8042;;;;
2020/06/20 17:42:11;;;;;;;3.7;2;;;;;;;16.1;83.8418;942.7972;;;;
2020/06/20 17:44:37;;;;;;;2.8;2.3;;;;;;;16.07;84.57715;942.803;;;;
2020/06/20 17:47:02;;;;;;;4.1;2.5;;;;;;;16.13;85.00586;942.7569;;;;
2020/06/20 17:49:28;;;;;;;4.8;2.9;;;;;;;16.18;85.32813;942.7389;;;;
2020/06/20 17:51:53;;;;;;;5.3;2.5;;;;;;;16.23;84.62012;942.7615;;;;
2020/06/20 17:54:19;;;;;;;3.7;2.6;;;;;;;16.18;84.99316;942.7839;;;;
2020/06/20 17:56:44;;;;;;;3;2.3;;;;;;;16.17;84.35156;942.8089;;;;
2020/06/20 17:59:12;;;;;;;4.3;2.9;;;;;;;16.11;85.38379;942.753;;;;
2020/06/20 18:01:37;;;;;;;5.2;2.7;;;;;;;16.16;85.14941;942.7937;;;;
2020/06/20 18:04:03;;;;;;;2.3;2.1;;;;;;;16.1;84.1084;942.7667;;;;
2020/06/20 18:06:28;;;;;;;5.8;2.4;;;;;;;15.87;85.23242;942.6958;;;;
2020/06/20 18:08:55;;;;;;;5;2.3;;;;;;;15.9;85.12402;942.658;;;;
2020/06/20 18:11:20;;;;;;;5.8;2.1;;;;;;;15.92;85.27539;942.7302;;;;
2020/06/20 18:13:45;;;;;;;5;2.9;;;;;;;15.97;85.97949;942.7292;;;;
2020/06/20 18:16:11;;;;;;;4.2;2.5;;;;;;;15.92;85.45117;942.6852;;;;
2020/06/20 18:18:36;;;;;;;5.9;2.8;;;;;;;15.74;85.93359;942.6936;;;;
2020/06/20 18:21:01;;;;;;;3.8;2.5;;;;;;;15.74;86.38477;942.6663;;;;
2020/06/20 18:23:26;;;;;;;5.6;3.2;;;;;;;15.7;86.22656;942.7114;;;;
2020/06/20 18:25:53;;;;;;;7;3.6;;;;;;;15.45;86.71973;942.6368;;;;
2020/06/20 18:28:18;;;;;;;5.5;3.3;;;;;;;15.46;87.07031;942.6906;;;;
2020/06/20 18:30:44;;;;;;;5.6;3;;;;;;;15.44;87.12207;942.6705;;;;
2020/06/20 18:33:09;;;;;;;4;2.7;;;;;;;15.51;86.4209;942.7338;;;;
2020/06/20 18:35:34;;;;;;;3.5;3;;;;;;;15.5;86.5459;942.7194;;;;
2020/06/20 18:38:00;;;;;;;4.8;2.8;;;;;;;15.6;86.57715;942.6672;;;;
2020/06/20 18:40:25;;;;;;;5.2;2.9;;;;;;;15.68;86.4541;942.6962;;;;
2020/06/20 18:42:50;;;;;;;5.3;2.9;;;;;;;15.71;86.37891;942.68;;;;
2020/06/20 18:45:15;;;;;;;5.6;3;;;;;;;15.72;86.52148;942.6462;;;;
2020/06/20 18:47:41;;;;;;;7.4;5.1;;;;;;;15.79;86.49902;942.6275;;;;
2020/06/20 18:50:06;;;;;;;7.8;4.2;;;;;;;15.79;85.88867;942.6203;;;;
2020/06/20 18:52:32;;;;;;;4.3;3.6;;;;;;;15.69;86.44434;942.6191;;;;
2020/06/20 18:55:48;;;;;;;5.4;3.5;;;;;;;15.7;86.26367;942.7154;;;;
2020/06/20 18:58:13;;;;;;;4.9;4.2;;;;;;;15.66;86.03516;942.7051;;;;
2020/06/20 19:00:40;;;;;;;5.4;4.3;;;;;;;15.48;86.21875;942.6889;;;;
2020/06/20 19:03:05;;;;;;;8.4;5.4;;;;;;;15.43;86.55469;942.7003;;;;
2020/06/20 19:05:30;;;;;;;4.8;3.7;;;;;;;15.34;86.99902;942.7619;;;;
2020/06/20 19:07:55;;;;;;;3.2;2.1;;;;;;;15.42;86.68164;942.7051;;;;
2020/06/20 19:10:21;;;;;;;3.2;1.7;;;;;;;15.38;86.28027;942.7193;;;;
2020/06/20 19:12:46;;;;;;;4.8;1.6;;;;;;;15.34;86.66406;942.693;;;;
2020/06/20 19:15:12;;;;;;;2.4;1.6;;;;;;;15.32;86.63672;942.66;;;;
2020/06/20 19:17:37;;;;;;;6.6;3.2;;;;;;;15.32;86.64844;942.6713;;;;
2020/06/20 19:20:02;;;;;;;3.3;2.5;;;;;;;15.23;87.39063;942.6915;;;;
2020/06/20 19:22:27;;;;;;;3.6;2.2;;;;;;;15.27;86.98633;942.8086;;;;
2020/06/20 19:24:54;;;;;;;2.9;2.2;;;;;;;15.28;86.79004;942.8206;;;;
2020/06/20 19:27:19;;;;;;;3.9;2.6;;;;;;;15.19;87.28125;942.8477;;;;
2020/06/20 19:29:45;;;;;;;5.3;2.7;;;;;;;15.21;87.0332;942.9142;;;;
2020/06/20 19:32:10;;;;;;;5.7;2.4;;;;;;;15.35;87.13867;942.924;;;;
2020/06/20 19:34:36;;;;;;;3.5;1.9;;;;;;;15.32;87.24902;942.9529;;;;
2020/06/20 19:37:01;;;;;;;5;2.1;;;;;;;15.29;86.89746;942.9041;;;;
2020/06/20 19:39:28;;;;;;;2.1;1.9;;;;;;;15.24;87.02539;942.921;;;;
2020/06/20 19:41:53;;;;;;;3.6;2.4;;;;;;;15.1;86.91504;942.8333;;;;
2020/06/20 19:44:18;;;;;;;5.6;2.6;;;;;;;14.87;88.39453;942.9221;;;;
2020/06/20 19:46:44;;;;;;;6.1;2.6;;;;;;;14.83;88.45508;942.8748;;;;
2020/06/20 19:49:09;;;;;;;3.9;2.6;;;;;;;14.84;88.56055;943.0303;;;;
2020/06/20 19:51:34;;;;;;;4;2.8;;;;;;;14.88;88.3623;943.1169;;;;
2020/06/20 19:53:59;;;;;;;3.2;2.3;;;;;;;14.97;88.125;943.0753;;;;
2020/06/20 19:56:25;;;;;;;4.5;2.4;;;;;;;15.04;88.16211;943.1133;;;;
2020/06/20 19:58:50;;;;;;;3.3;2;;;;;;;15.18;87.79883;943.1149;;;;
2020/06/20 20:01:17;;;;;;;1.7;1.3;;;;;;;15.15;87.31836;943.0635;;;;
2020/06/20 20:03:42;;;;;;;3.1;1.4;;;;;;;15.1;87.5752;943.1005;;;;
2020/06/20 20:06:07;;;;;;;3.4;1.6;;;;;;;15.09;87.78125;943.0988;;;;
2020/06/20 20:08:32;;;;;;;4.4;1.8;;;;;;;15.04;88.03516;943.1221;;;;
2020/06/20 20:10:59;;;;;;;3;1.8;;;;;;;15.07;87.5332;943.0948;;;;
2020/06/20 20:13:24;;;;;;;2.7;1.5;;;;;;;15.05;87.54102;943.0571;;;;
2020/06/20 20:15:49;;;;;;;3.2;2.3;;;;;;;15.02;87.76465;943.0146;;;;
2020/06/20 20:18:15;;;;;;;2.9;1.8;;;;;;;15.03;87.82617;943.0009;;;;
2020/06/20 20:20:40;;;;;;;4.4;2;;;;;;;15.04;87.9082;943.0403;;;;
2020/06/20 20:23:05;;;;;;;2.9;1.9;;;;;;;15.04;87.8623;942.9144;;;;
2020/06/20 20:25:30;;;;;;;4.1;2;;;;;;;15.01;88.17969;943.0128;;;;
2020/06/20 20:27:56;;;;;;;4.9;2.2;;;;;;;15.01;87.8457;942.9221;;;;
2020/06/20 20:30:22;;;;;;;3.7;2.3;;;;;;;15.04;87.6084;942.9592;;;;
2020/06/20 20:32:51;;;;;;;3.9;2.5;;;;;;;15.02;87.64941;942.9504;;;;
2020/06/20 20:35:16;;;;;;;2.6;1.9;;;;;;;15.01;87.1875;942.9445;;;;
2020/06/20 20:37:41;;;;;;;2.7;2.1;;;;;;;14.93;87.72559;942.9325;;;;
2020/06/20 20:40:06;;;;;;;2.8;2.3;;;;;;;14.85;88.20605;942.9878;;;;
2020/06/20 20:42:31;;;;;;;2.6;2.4;;;;;;;14.83;88.07422;943.0255;;;;
2020/06/20 20:44:56;;;;;;;2.8;2.4;;;;;;;14.86;87.88379;943.0215;;;;
2020/06/20 20:47:22;;;;;;;5.2;2.3;;;;;;;14.91;87.75586;943.0134;;;;
2020/06/20 20:49:47;;;;;;;2.8;2.4;;;;;;;14.91;87.94043;943.0392;;;;
2020/06/20 20:52:12;;;;;;;3.9;2.4;;;;;;;14.95;88.10938;943.0432;;;;
2020/06/20 20:54:37;;;;;;;2.8;1.7;;;;;;;14.95;87.83301;943.0079;;;;
2020/06/20 20:57:02;;;;;;;3.1;1.5;;;;;;;14.92;88.10254;943.0577;;;;
2020/06/20 20:59:28;;;;;;;3.3;1.6;;;;;;;14.9;88.2832;942.9966;;;;
2020/06/20 21:01:53;;;;;;;2.3;1.7;;;;;;;14.93;88.46191;943.0664;;;;
2020/06/20 21:04:18;;;;;;;3.9;2;;;;;;;14.92;88.51758;943.0303;;;;
2020/06/20 21:06:43;;;;;;;3.7;2.3;;;;;;;14.91;88.44824;943.101;;;;
2020/06/20 21:09:09;;;;;;;3.6;2.1;;;;;;;14.9;88.51563;943.1082;;;;
2020/06/20 21:11:34;;;;;;;4.5;2;;;;;;;14.91;88.44824;943.052;;;;
2020/06/20 21:14:01;;;;;;;3.7;2.1;;;;;;;14.88;88.83301;943.0809;;;;
2020/06/20 21:16:26;;;;;;;5.3;2.5;;;;;;;14.88;88.78711;943.0881;;;;
2020/06/20 21:18:52;;;;;;;3.5;2.4;;;;;;;14.93;88.61328;943.0953;;;;
2020/06/20 21:21:17;;;;;;;3.2;1.8;;;;;;;14.97;88.19336;943.1041;;;;
2020/06/20 21:23:43;;;;;;;3.5;1.8;;;;;;;14.98;88.2998;943.1306;;;;
2020/06/20 21:26:08;;;;;;;3.7;2.1;;;;;;;14.88;88.1875;943.1353;;;;
2020/06/20 21:28:35;;;;;;;2.8;1.8;;;;;;;14.83;87.92285;943.1747;;;;
2020/06/20 21:31:00;;;;;;;3.6;2.1;;;;;;;14.83;87.91113;943.1394;;;;
2020/06/20 21:33:26;;;;;;;3.5;2.5;;;;;;;14.8;88.00879;943.2087;;;;
2020/06/20 21:35:51;;;;;;;4.1;2.6;;;;;;;14.81;87.81543;943.224;;;;
2020/06/20 21:38:17;;;;;;;5.4;2.6;;;;;;;14.82;87.99023;943.1778;;;;
2020/06/20 21:40:42;;;;;;;4.2;2.9;;;;;;;14.82;88.18555;943.2355;;;;
2020/06/20 21:43:09;;;;;;;3.7;3;;;;;;;14.63;89.35938;943.1813;;;;
2020/06/20 21:45:34;;;;;;;4.1;3.1;;;;;;;14.6;90.07813;943.1713;;;;
2020/06/20 21:48:00;;;;;;;4.2;2.8;;;;;;;14.6;89.95313;943.1577;;;;
2020/06/20 21:50:25;;;;;;;3.9;3;;;;;;;14.68;89.57617;943.1909;;;;
2020/06/20 21:52:52;;;;;;;7.5;3.8;;;;;;;14.69;89.84375;943.1789;;;;
2020/06/20 21:55:17;;;;;;;4.9;3.4;;;;;;;14.66;89.79199;943.1565;;;;
2020/06/20 21:57:43;;;;;;;8;3.3;;;;;;;14.62;89.85352;943.1636;;;;
2020/06/20 22:00:08;;;;;;;4.2;2.7;;;;;;;14.54;89.91699;943.1223;;;;
2020/06/20 22:02:35;;;;;;;3.5;2.8;;;;;;;14.45;90.42871;943.1013;;;;
2020/06/20 22:05:00;;;;;;;2.5;1.9;;;;;;;14.45;89.92188;943.1197;;;;
2020/06/20 22:07:25;;;;;;;3.7;2.2;;;;;;;14.41;90.00488;943.0237;;;;
2020/06/20 22:09:50;;;;;;;3.4;2;;;;;;;14.19;90.50098;943.0652;;;;
2020/06/20 22:12:15;;;;;;;3.5;2.1;;;;;;;14.16;91.27637;943.0779;;;;
2020/06/20 22:14:41;;;;;;;2.8;2.1;;;;;;;14.15;91.31055;943.0643;;;;
2020/06/20 22:17:06;;;;;;;3.4;1.8;;;;;;;14.14;91.21484;943.0891;;;;
2020/06/20 22:19:31;;;;;;;3.8;2.5;;;;;;;14.17;91.30371;943.0844;;;;
2020/06/20 22:21:56;;;;;;;5.7;2.6;;;;;;;14.2;90.85938;943.1141;;;;
2020/06/20 22:24:21;;;;;;;5.1;2.7;;;;;;;14.25;90.57129;943.0617;;;;
2020/06/20 22:26:47;;;;;;;6.3;2.7;;;;;;;14.34;90.1416;943.0251;;;;
2020/06/20 22:29:12;;;;;;;4.4;2.6;;;;;;;14.36;90.33887;943.0556;;;;
2020/06/20 22:31:38;;;;;;;3.1;2.5;;;;;;;14.44;90.45898;943.0588;;;;
2020/06/20 22:34:03;;;;;;;2;1.8;;;;;;;14.52;89.77344;943.0197;;;;
2020/06/20 22:36:31;;;;;;;3.3;1.9;;;;;;;14.41;90.13086;942.9868;;;;
2020/06/20 22:38:55;;;;;;;2.1;1.9;;;;;;;14.41;90.19043;943.0365;;;;
2020/06/20 22:41:21;;;;;;;4.6;2.1;;;;;;;14.45;90.42871;943.0139;;;;
2020/06/20 22:43:46;;;;;;;2.6;2;;;;;;;14.48;90.21582;942.933;;;;
2020/06/20 22:46:11;;;;;;;4.1;2.2;;;;;;;14.53;89.88086;943.0005;;;;
2020/06/20 22:48:36;;;;;;;2.9;1.6;;;;;;;14.47;89.95996;943.0236;;;;
2020/06/20 22:51:01;;;;;;;3.2;1.7;;;;;;;14.37;90.23926;943.0179;;;;
2020/06/20 22:53:27;;;;;;;2.4;1.6;;;;;;;14.27;90.95703;942.992;;;;
2020/06/20 22:55:52;;;;;;;2.2;2;;;;;;;14.28;90.77344;943.0137;;;;
2020/06/20 22:58:17;;;;;;;3;2.1;;;;;;;14.24;90.75195;942.9992;;;;
2020/06/20 23:00:42;;;;;;;2.2;1.9;;;;;;;14.23;90.67188;943;;;;
2020/06/20 23:03:07;;;;;;;2.3;1.9;;;;;;;14.28;90.6582;943.0033;;;;
2020/06/20 23:05:34;;;;;;;3.9;1.9;;;;;;;14.26;91.1377;943.0112;;;;
2020/06/20 23:07:59;;;;;;;2.7;2.2;;;;;;;14.26;91.06738;943.0706;;;;
2020/06/20 23:10:25;;;;;;;6.3;2.4;;;;;;;14.28;91.16504;943.0281;;;;
2020/06/20 23:12:50;;;;;;;8.4;3.1;;;;;;;14.21;91.33398;943.0132;;;;
2020/06/20 23:15:15;;;;;;;4.1;2.6;;;;;;;14.21;90.78125;943.0156;;;;
2020/06/20 23:17:40;;;;;;;4.4;2.6;;;;;;;14.18;90.92285;943.009;;;;
2020/06/20 23:20:10;;;;;;;5.2;2.4;;;;;;;14.24;90.96094;942.9688;;;;
2020/06/20 23:22:35;;;;;;;3.7;1.8;;;;;;;14.27;90.65625;942.9929;;;;
2020/06/20 23:25:01;;;;;;;4.4;1.8;;;;;;;14.27;89.98828;942.9849;;;;
2020/06/20 23:27:26;;;;;;;3.7;2.1;;;;;;;14.24;90.09766;942.9407;;;;
2020/06/20 23:29:51;;;;;;;3.1;2;;;;;;;14.2;90.51465;942.9099;;;;
2020/06/20 23:32:16;;;;;;;3.3;1.8;;;;;;;14.23;90.37207;942.9247;;;;
2020/06/20 23:34:42;;;;;;;2;1.8;;;;;;;14.37;90.29688;942.9363;;;;
2020/06/20 23:37:07;;;;;;;3.9;2.1;;;;;;;14.35;90.51172;942.8738;;;;
2020/06/20 23:39:32;;;;;;;7.9;3.8;;;;;;;14.34;90.24512;942.937;;;;
2020/06/20 23:41:57;;;;;;;4.7;2.5;;;;;;;14.31;89.90527;942.8848;;;;
2020/06/20 23:44:22;;;;;;;5.6;2.2;;;;;;;14.3;89.59082;942.8695;;;;
2020/06/20 23:46:48;;;;;;;4.1;2.2;;;;;;;14.26;89.90527;942.9328;;;;
2020/06/20 23:49:13;;;;;;;3.4;2.2;;;;;;;14.25;90.08789;942.8959;;;;
2020/06/20 23:51:38;;;;;;;2.9;2;;;;;;;14.2;90.57227;942.8754;;;;
2020/06/20 23:54:03;;;;;;;2.9;1.9;;;;;;;14.22;90.58887;942.8389;;;;
2020/06/20 23:56:28;;;;;;;4.1;2.9;;;;;;;14.18;90.85449;942.8409;;;;
2020/06/20 23:58:53;;;;;;;3.6;2.5;;;;;;;14.2;90.66406;942.8722;;;;
